createdAt,value
2018-01-30T00:01:03.830Z,64.08
2018-01-30T00:02:09.567Z,63.70
2018-01-30T00:03:15.328Z,62.94
2018-01-30T00:04:20.477Z,62.71
2018-01-30T00:05:26.212Z,62.63
2018-01-30T00:06:31.922Z,61.81
2018-01-30T00:07:37.336Z,61.63
2018-01-30T00:08:43.879Z,61.69
2018-01-30T00:09:50.385Z,61.18
2018-01-30T00:10:56.432Z,61.13
2018-01-30T00:12:02.168Z,60.83
2018-01-30T00:13:07.888Z,60.65
2018-01-30T00:14:13.651Z,60.65
2018-01-30T00:15:19.363Z,60.79
2018-01-30T00:16:25.008Z,60.98
2018-01-30T00:17:31.603Z,61.02
2018-01-30T00:18:37.328Z,61.13
2018-01-30T00:19:43.284Z,61.27
2018-01-30T00:20:48.995Z,61.55
2018-01-30T00:21:54.838Z,61.55
2018-01-30T00:23:01.621Z,61.67
2018-01-30T00:24:07.355Z,61.75
2018-01-30T00:25:13.099Z,62.05
2018-01-30T00:26:18.807Z,62.11
2018-01-30T00:27:25.312Z,62.09
2018-01-30T00:28:31.044Z,62.12
2018-01-30T00:29:36.779Z,62.11
2018-01-30T00:30:42.541Z,62.13
2018-01-30T00:31:48.276Z,62.36
2018-01-30T00:32:54.002Z,62.57
2018-01-30T00:33:59.721Z,62.67
2018-01-30T00:35:06.222Z,62.87
2018-01-30T00:36:11.992Z,63.00
2018-01-30T00:37:17.836Z,63.02
2018-01-30T00:38:23.549Z,63.04
2018-01-30T00:39:29.296Z,63.22
2018-01-30T00:40:35.040Z,63.50
2018-01-30T00:41:40.840Z,63.64
2018-01-30T00:42:47.336Z,63.78
2018-01-30T00:43:53.079Z,63.90
2018-01-30T00:44:58.796Z,64.10
2018-01-30T00:46:04.530Z,64.24
2018-01-30T00:47:10.277Z,64.40
2018-01-30T00:48:16.006Z,64.53
2018-01-30T00:49:22.507Z,64.62
2018-01-30T00:50:28.234Z,64.88
2018-01-30T00:51:33.951Z,65.04
2018-01-30T00:52:39.800Z,65.13
2018-01-30T00:53:45.586Z,65.38
2018-01-30T00:54:51.296Z,65.48
2018-01-30T00:55:57.030Z,65.58
2018-01-30T00:57:02.763Z,65.72
2018-01-30T00:58:08.506Z,65.86
2018-01-30T00:59:14.225Z,66.01
2018-01-30T01:00:20.699Z,66.11
2018-01-30T01:01:26.403Z,66.26
2018-01-30T01:02:32.172Z,66.31
2018-01-30T01:03:37.772Z,66.34
2018-01-30T01:04:43.171Z,66.49
2018-01-30T01:05:48.912Z,66.60
2018-01-30T01:06:54.656Z,66.77
2018-01-30T01:08:01.152Z,66.91
2018-01-30T01:09:06.246Z,67.03
2018-01-30T01:10:11.961Z,67.21
2018-01-30T01:11:17.681Z,67.29
2018-01-30T01:12:23.841Z,67.44
2018-01-30T01:13:30.346Z,67.50
2018-01-30T01:14:36.093Z,67.62
2018-01-30T01:15:40.933Z,67.58
2018-01-30T01:16:46.667Z,67.62
2018-01-30T01:17:52.408Z,67.75
2018-01-30T01:18:58.152Z,67.74
2018-01-30T01:20:04.421Z,67.68
2018-01-30T01:21:10.179Z,67.68
2018-01-30T01:22:15.776Z,67.82
2018-01-30T01:23:21.488Z,67.83
2018-01-30T01:24:27.223Z,67.89
2018-01-30T01:25:32.995Z,67.93
2018-01-30T01:26:38.777Z,67.96
2018-01-30T01:27:45.259Z,68.03
2018-01-30T01:28:50.974Z,67.94
2018-01-30T01:29:57.456Z,67.86
2018-01-30T01:31:03.215Z,67.91
2018-01-30T01:32:08.998Z,67.89
2018-01-30T01:33:14.909Z,67.90
2018-01-30T01:34:20.624Z,67.88
2018-01-30T01:35:26.404Z,68.02
2018-01-30T01:36:32.158Z,68.10
2018-01-30T01:37:37.880Z,68.16
2018-01-30T01:38:43.676Z,68.13
2018-01-30T01:39:50.175Z,68.08
2018-01-30T01:40:55.902Z,68.08
2018-01-30T01:42:01.646Z,68.02
2018-01-30T01:43:07.378Z,67.89
2018-01-30T01:44:13.124Z,67.78
2018-01-30T01:45:18.871Z,67.71
2018-01-30T01:46:24.601Z,67.63
2018-01-30T01:47:30.368Z,67.49
2018-01-30T01:48:36.100Z,67.38
2018-01-30T01:49:41.843Z,67.32
2018-01-30T01:50:47.556Z,67.33
2018-01-30T01:51:54.037Z,67.38
2018-01-30T01:52:59.790Z,67.37
2018-01-30T01:54:05.503Z,67.36
2018-01-30T01:55:11.648Z,67.46
2018-01-30T01:56:18.146Z,67.34
2018-01-30T01:57:23.861Z,67.17
2018-01-30T01:58:30.364Z,67.05
2018-01-30T01:59:36.194Z,66.92
2018-01-30T02:00:41.906Z,66.91
2018-01-30T02:01:48.381Z,66.94
2018-01-30T02:02:54.118Z,66.99
2018-01-30T02:03:59.861Z,66.92
2018-01-30T02:05:05.270Z,66.90
2018-01-30T02:06:11.749Z,66.97
2018-01-30T02:07:17.465Z,66.98
2018-01-30T02:08:23.944Z,66.91
2018-01-30T02:09:29.687Z,66.76
2018-01-30T02:10:35.400Z,66.55
2018-01-30T02:11:41.917Z,66.40
2018-01-30T02:12:47.648Z,66.32
2018-01-30T02:13:53.052Z,66.30
2018-01-30T02:14:58.792Z,66.22
2018-01-30T02:16:04.507Z,66.08
2018-01-30T02:17:10.272Z,66.09
2018-01-30T02:18:16.763Z,66.08
2018-01-30T02:19:22.485Z,66.09
2018-01-30T02:20:28.238Z,66.14
2018-01-30T02:21:33.948Z,66.09
2018-01-30T02:22:40.487Z,66.18
2018-01-30T02:23:46.256Z,66.26
2018-01-30T02:24:52.738Z,66.38
2018-01-30T02:25:58.501Z,66.38
2018-01-30T02:27:04.270Z,66.36
2018-01-30T02:28:09.985Z,66.29
2018-01-30T02:29:15.701Z,66.43
2018-01-30T02:30:21.759Z,66.47
2018-01-30T02:31:27.520Z,66.54
2018-01-30T02:32:33.236Z,66.47
2018-01-30T02:33:38.950Z,66.53
2018-01-30T02:34:44.687Z,66.58
2018-01-30T02:35:50.402Z,66.53
2018-01-30T02:36:56.163Z,66.43
2018-01-30T02:38:02.646Z,66.38
2018-01-30T02:39:08.353Z,66.30
2018-01-30T02:40:14.845Z,66.24
2018-01-30T02:41:20.555Z,66.17
2018-01-30T02:42:27.101Z,66.18
2018-01-30T02:43:32.842Z,66.19
2018-01-30T02:44:38.579Z,66.14
2018-01-30T02:45:45.060Z,66.03
2018-01-30T02:46:51.542Z,66.05
2018-01-30T02:47:57.288Z,65.92
2018-01-30T02:49:02.781Z,65.96
2018-01-30T02:50:08.265Z,66.00
2018-01-30T02:51:13.431Z,66.06
2018-01-30T02:52:19.194Z,66.18
2018-01-30T02:53:25.392Z,66.23
2018-01-30T02:54:30.242Z,66.22
2018-01-30T02:55:35.952Z,66.28
2018-01-30T02:56:41.030Z,66.32
2018-01-30T02:57:45.870Z,66.35
2018-01-30T02:58:52.398Z,66.38
2018-01-30T02:59:58.155Z,66.46
2018-01-30T03:01:04.646Z,66.60
2018-01-30T03:02:10.386Z,66.60
2018-01-30T03:03:16.122Z,66.61
2018-01-30T03:04:21.894Z,66.67
2018-01-30T03:05:27.624Z,66.68
2018-01-30T03:06:33.340Z,66.70
2018-01-30T03:07:39.175Z,66.72
2018-01-30T03:08:45.674Z,66.69
2018-01-30T03:09:51.512Z,66.57
2018-01-30T03:10:57.246Z,66.43
2018-01-30T03:12:03.012Z,66.38
2018-01-30T03:13:08.905Z,66.37
2018-01-30T03:14:15.417Z,66.31
2018-01-30T03:15:21.165Z,66.25
2018-01-30T03:16:26.903Z,66.15
2018-01-30T03:17:32.634Z,66.00
2018-01-30T03:18:38.427Z,65.99
2018-01-30T03:19:44.909Z,66.04
2018-01-30T03:20:50.646Z,66.04
2018-01-30T03:21:56.375Z,66.02
2018-01-30T03:23:02.093Z,66.02
2018-01-30T03:24:08.900Z,66.12
2018-01-30T03:25:14.840Z,66.04
2018-01-30T03:26:20.599Z,66.00
2018-01-30T03:27:26.335Z,66.00
2018-01-30T03:28:32.065Z,66.16
2018-01-30T03:29:37.785Z,66.14
2018-01-30T03:30:43.532Z,66.12
2018-01-30T03:31:49.303Z,66.16
2018-01-30T03:32:55.037Z,66.22
2018-01-30T03:34:00.759Z,66.14
2018-01-30T03:35:06.479Z,66.08
2018-01-30T03:36:12.985Z,66.12
2018-01-30T03:37:18.828Z,66.10
2018-01-30T03:38:24.552Z,66.17
2018-01-30T03:39:30.296Z,66.26
2018-01-30T03:40:36.042Z,66.30
2018-01-30T03:41:41.762Z,66.30
2018-01-30T03:42:47.504Z,66.36
2018-01-30T03:43:53.250Z,66.38
2018-01-30T03:44:59.042Z,66.37
2018-01-30T03:46:04.776Z,66.28
2018-01-30T03:47:10.522Z,66.22
2018-01-30T03:48:16.281Z,66.08
2018-01-30T03:49:22.024Z,66.10
2018-01-30T03:50:28.563Z,66.08
2018-01-30T03:51:34.291Z,65.98
2018-01-30T03:52:40.375Z,65.88
2018-01-30T03:53:46.144Z,65.84
2018-01-30T03:54:51.878Z,65.76
2018-01-30T03:55:58.374Z,65.69
2018-01-30T03:57:04.111Z,65.61
2018-01-30T03:58:09.846Z,65.48
2018-01-30T03:59:15.603Z,65.36
2018-01-30T04:00:21.335Z,65.25
2018-01-30T04:01:27.066Z,65.21
2018-01-30T04:02:32.819Z,65.17
2018-01-30T04:03:38.631Z,65.17
2018-01-30T04:04:45.150Z,65.17
2018-01-30T04:05:50.642Z,65.21
2018-01-30T04:06:56.451Z,65.24
2018-01-30T04:08:02.288Z,65.25
2018-01-30T04:09:08.016Z,65.19
2018-01-30T04:10:13.758Z,65.24
2018-01-30T04:11:21.400Z,65.25
2018-01-30T04:12:27.143Z,65.22
2018-01-30T04:13:32.957Z,65.14
2018-01-30T04:14:39.134Z,65.25
2018-01-30T04:15:44.898Z,65.37
2018-01-30T04:16:51.178Z,65.49
2018-01-30T04:17:56.915Z,65.53
2018-01-30T04:19:02.643Z,65.59
2018-01-30T04:20:08.183Z,65.57
2018-01-30T04:21:13.944Z,65.54
2018-01-30T04:22:19.653Z,65.44
2018-01-30T04:23:25.395Z,65.48
2018-01-30T04:24:31.112Z,65.37
2018-01-30T04:25:36.850Z,65.26
2018-01-30T04:26:42.599Z,65.21
2018-01-30T04:27:48.324Z,65.17
2018-01-30T04:28:54.082Z,65.15
2018-01-30T04:29:59.849Z,65.04
2018-01-30T04:31:06.078Z,65.02
2018-01-30T04:32:11.593Z,64.99
2018-01-30T04:33:17.325Z,64.89
2018-01-30T04:34:23.074Z,64.84
2018-01-30T04:35:28.885Z,64.81
2018-01-30T04:36:34.612Z,64.77
2018-01-30T04:37:40.049Z,64.80
2018-01-30T04:38:45.760Z,64.71
2018-01-30T04:39:51.495Z,64.66
2018-01-30T04:40:57.235Z,64.41
2018-01-30T04:42:02.968Z,64.31
2018-01-30T04:43:08.731Z,64.33
2018-01-30T04:44:14.450Z,64.25
2018-01-30T04:45:20.412Z,64.20
2018-01-30T04:47:31.004Z,64.14
2018-01-30T04:48:36.747Z,64.14
2018-01-30T04:49:42.594Z,64.24
2018-01-30T04:50:48.323Z,64.47
2018-01-30T04:51:54.062Z,64.84
2018-01-30T04:52:59.582Z,65.17
2018-01-30T04:54:05.345Z,65.72
2018-01-30T04:55:11.082Z,66.07
2018-01-30T04:56:16.822Z,66.55
2018-01-30T04:57:22.546Z,67.21
2018-01-30T04:58:27.393Z,67.98
2018-01-30T04:59:33.163Z,68.65
2018-01-30T05:00:39.649Z,69.26
2018-01-30T05:01:45.414Z,69.73
2018-01-30T05:02:51.154Z,70.21
2018-01-30T05:03:56.905Z,70.29
2018-01-30T05:05:02.640Z,70.51
2018-01-30T05:06:08.366Z,70.47
2018-01-30T05:07:14.106Z,70.65
2018-01-30T05:08:19.535Z,70.52
2018-01-30T05:09:25.907Z,70.71
2018-01-30T05:10:31.648Z,71.00
2018-01-30T05:11:37.391Z,71.18
2018-01-30T05:12:43.140Z,71.34
2018-01-30T05:13:48.888Z,71.68
2018-01-30T05:14:54.640Z,72.00
2018-01-30T05:16:00.404Z,72.00
2018-01-30T05:17:06.893Z,71.92
2018-01-30T05:18:12.628Z,72.08
2018-01-30T05:19:18.364Z,72.26
2018-01-30T05:20:24.125Z,72.39
2018-01-30T05:21:29.888Z,72.39
2018-01-30T05:22:35.631Z,72.44
2018-01-30T05:23:41.360Z,72.47
2018-01-30T05:24:47.089Z,72.31
2018-01-30T05:25:52.620Z,72.13
2018-01-30T05:26:58.382Z,71.95
2018-01-30T05:28:04.139Z,71.74
2018-01-30T05:29:09.852Z,71.58
2018-01-30T05:30:15.702Z,71.40
2018-01-30T05:31:21.445Z,71.08
2018-01-30T05:32:27.224Z,70.70
2018-01-30T05:33:33.747Z,70.42
2018-01-30T05:34:39.486Z,70.19
2018-01-30T05:35:45.219Z,69.88
2018-01-30T05:36:50.985Z,69.38
2018-01-30T05:37:56.738Z,69.20
2018-01-30T05:39:03.122Z,69.04
2018-01-30T05:40:08.871Z,68.90
2018-01-30T05:41:14.584Z,68.84
2018-01-30T05:42:21.066Z,68.82
2018-01-30T05:43:27.209Z,68.65
2018-01-30T05:44:33.701Z,68.51
2018-01-30T05:45:39.430Z,68.50
2018-01-30T05:46:45.144Z,68.47
2018-01-30T05:47:51.650Z,68.48
2018-01-30T05:48:57.401Z,68.45
2018-01-30T05:50:03.165Z,68.42
2018-01-30T05:51:08.893Z,68.38
2018-01-30T05:52:15.407Z,68.38
2018-01-30T05:53:21.231Z,68.38
2018-01-30T05:54:27.907Z,68.35
2018-01-30T05:55:33.642Z,68.27
2018-01-30T05:56:38.755Z,68.17
2018-01-30T05:57:45.244Z,67.93
2018-01-30T05:58:50.955Z,67.81
2018-01-30T05:59:57.487Z,67.76
2018-01-30T06:01:03.261Z,67.67
2018-01-30T06:02:09.747Z,67.69
2018-01-30T06:03:15.503Z,67.74
2018-01-30T06:04:21.247Z,67.88
2018-01-30T06:05:27.003Z,68.00
2018-01-30T06:06:32.724Z,68.36
2018-01-30T06:07:38.460Z,68.78
2018-01-30T06:08:44.225Z,69.17
2018-01-30T06:09:49.973Z,69.41
2018-01-30T06:10:55.873Z,69.32
2018-01-30T06:12:01.608Z,69.65
2018-01-30T06:13:07.432Z,69.58
2018-01-30T06:14:14.167Z,69.70
2018-01-30T06:15:19.892Z,70.12
2018-01-30T06:16:25.646Z,70.25
2018-01-30T06:17:31.379Z,70.37
2018-01-30T06:18:37.128Z,70.46
2018-01-30T06:19:43.052Z,70.42
2018-01-30T06:20:48.773Z,70.65
2018-01-30T06:21:55.308Z,70.66
2018-01-30T06:23:01.040Z,70.80
2018-01-30T06:24:06.770Z,70.80
2018-01-30T06:25:12.507Z,71.04
2018-01-30T06:26:18.238Z,71.18
2018-01-30T06:27:23.983Z,71.14
2018-01-30T06:28:29.735Z,71.37
2018-01-30T06:29:35.469Z,71.57
2018-01-30T06:30:41.207Z,71.64
2018-01-30T06:31:46.991Z,71.58
2018-01-30T06:32:52.046Z,71.62
2018-01-30T06:33:57.822Z,71.78
2018-01-30T06:35:03.561Z,71.81
2018-01-30T06:36:09.300Z,71.74
2018-01-30T06:37:15.070Z,72.01
2018-01-30T06:38:22.330Z,72.04
2018-01-30T06:39:28.056Z,72.17
2018-01-30T06:40:33.802Z,72.07
2018-01-30T06:41:39.539Z,72.03
2018-01-30T06:42:45.265Z,72.22
2018-01-30T06:43:51.022Z,72.11
2018-01-30T06:44:59.870Z,72.12
2018-01-30T06:46:06.688Z,72.05
2018-01-30T06:47:12.435Z,72.07
2018-01-30T06:48:18.613Z,71.90
2018-01-30T06:49:24.710Z,71.90
2018-01-30T06:50:29.686Z,71.81
2018-01-30T06:51:37.543Z,71.70
2018-01-30T06:52:44.200Z,71.79
2018-01-30T06:53:50.218Z,71.78
2018-01-30T06:54:56.631Z,71.78
2018-01-30T06:56:02.476Z,71.69
2018-01-30T06:57:08.451Z,71.69
2018-01-30T06:58:16.926Z,71.58
2018-01-30T06:59:23.461Z,71.49
2018-01-30T07:00:29.203Z,71.46
2018-01-30T07:01:35.009Z,71.42
2018-01-30T07:02:40.946Z,71.42
2018-01-30T07:03:47.437Z,71.36
2018-01-30T07:04:53.173Z,71.26
2018-01-30T07:05:58.931Z,71.06
2018-01-30T07:07:04.640Z,70.84
2018-01-30T07:08:11.128Z,70.83
2018-01-30T07:09:16.869Z,70.81
2018-01-30T07:10:22.611Z,70.77
2018-01-30T07:11:28.049Z,70.67
2018-01-30T07:12:33.766Z,70.53
2018-01-30T07:13:40.263Z,70.42
2018-01-30T07:14:45.988Z,70.29
2018-01-30T07:15:51.721Z,70.29
2018-01-30T07:16:57.488Z,70.27
2018-01-30T07:18:03.208Z,70.42
2018-01-30T07:19:08.927Z,70.48
2018-01-30T07:20:15.443Z,70.60
2018-01-30T07:21:21.161Z,70.65
2018-01-30T07:22:26.971Z,70.43
2018-01-30T07:23:33.498Z,70.43
2018-01-30T07:24:39.255Z,70.39
2018-01-30T07:25:45.006Z,70.36
2018-01-30T07:26:51.510Z,70.34
2018-01-30T07:27:57.256Z,70.41
2018-01-30T07:29:03.003Z,70.47
2018-01-30T07:30:08.735Z,70.44
2018-01-30T07:31:14.476Z,70.39
2018-01-30T07:32:20.218Z,70.45
2018-01-30T07:33:25.968Z,70.38
2018-01-30T07:34:31.980Z,70.40
2018-01-30T07:35:37.812Z,70.31
2018-01-30T07:36:44.313Z,70.28
2018-01-30T07:37:50.051Z,70.22
2018-01-30T07:38:55.807Z,70.14
2018-01-30T07:40:01.543Z,70.04
2018-01-30T07:41:07.257Z,70.02
2018-01-30T07:42:12.989Z,69.96
2018-01-30T07:43:18.733Z,70.07
2018-01-30T07:44:24.494Z,70.00
2018-01-30T07:45:30.212Z,69.94
2018-01-30T07:46:35.952Z,69.91
2018-01-30T07:47:41.679Z,69.84
2018-01-30T07:48:48.165Z,69.76
2018-01-30T07:49:53.911Z,69.74
2018-01-30T07:50:59.666Z,69.53
2018-01-30T07:52:05.381Z,69.33
2018-01-30T07:53:11.119Z,69.29
2018-01-30T07:54:16.850Z,69.43
2018-01-30T07:55:22.686Z,69.46
2018-01-30T07:56:29.191Z,69.46
2018-01-30T07:57:34.918Z,69.43
2018-01-30T07:58:40.654Z,69.55
2018-01-30T07:59:45.557Z,69.50
2018-01-30T08:00:51.323Z,69.54
2018-01-30T08:01:57.043Z,69.46
2018-01-30T08:03:02.786Z,69.43
2018-01-30T08:04:08.618Z,69.36
2018-01-30T08:05:14.339Z,69.35
2018-01-30T08:06:20.300Z,69.32
2018-01-30T08:07:26.804Z,69.38
2018-01-30T08:08:32.547Z,69.39
2018-01-30T08:09:38.264Z,69.42
2018-01-30T08:10:44.024Z,69.26
2018-01-30T08:11:49.774Z,69.07
2018-01-30T08:12:55.553Z,69.04
2018-01-30T08:14:02.051Z,68.96
2018-01-30T08:15:07.438Z,68.92
2018-01-30T08:16:13.238Z,68.81
2018-01-30T08:17:18.974Z,68.75
2018-01-30T08:18:25.293Z,68.68
2018-01-30T08:19:31.772Z,68.67
2018-01-30T08:20:37.502Z,68.58
2018-01-30T08:21:43.215Z,68.54
2018-01-30T08:22:48.956Z,68.49
2018-01-30T08:23:54.678Z,68.46
2018-01-30T08:25:00.428Z,68.34
2018-01-30T08:26:06.144Z,68.28
2018-01-30T08:27:11.913Z,68.24
2018-01-30T08:28:17.665Z,68.30
2018-01-30T08:29:24.191Z,68.27
2018-01-30T08:30:29.925Z,68.25
2018-01-30T08:31:35.644Z,68.24
2018-01-30T08:32:41.504Z,68.18
2018-01-30T08:33:47.263Z,68.06
2018-01-30T08:34:53.045Z,67.98
2018-01-30T08:35:59.612Z,67.96
2018-01-30T08:37:06.110Z,67.87
2018-01-30T08:38:11.824Z,67.61
2018-01-30T08:39:17.593Z,67.53
2018-01-30T08:40:23.321Z,67.38
2018-01-30T08:41:29.049Z,67.20
2018-01-30T08:42:34.759Z,66.81
2018-01-30T08:43:41.262Z,66.48
2018-01-30T08:44:47.008Z,66.22
2018-01-30T08:45:52.740Z,65.98
2018-01-30T08:46:58.474Z,65.75
2018-01-30T08:48:04.207Z,65.54
2018-01-30T08:49:09.940Z,65.23
2018-01-30T08:50:16.482Z,64.85
2018-01-30T08:51:23.288Z,64.01
2018-01-30T08:52:29.018Z,63.46
2018-01-30T08:53:34.759Z,62.74
2018-01-30T08:54:40.499Z,62.01
2018-01-30T08:55:46.255Z,60.95
2018-01-30T08:56:51.992Z,59.48
2018-01-30T08:57:57.737Z,58.56
2018-01-30T08:59:03.480Z,58.29
2018-01-30T09:00:09.204Z,57.61
2018-01-30T09:01:14.963Z,57.12
2018-01-30T09:02:20.704Z,56.63
2018-01-30T09:03:26.436Z,55.88
2018-01-30T09:04:32.182Z,54.98
2018-01-30T09:05:37.932Z,54.58
2018-01-30T09:06:43.710Z,54.40
2018-01-30T09:07:49.437Z,53.91
2018-01-30T09:08:55.188Z,53.48
2018-01-30T09:10:00.924Z,52.70
2018-01-30T09:11:06.693Z,51.86
2018-01-30T09:12:12.450Z,51.58
2018-01-30T09:13:18.264Z,51.31
2018-01-30T09:14:24.034Z,50.86
2018-01-30T09:15:29.785Z,50.84
2018-01-30T09:16:35.521Z,50.66
2018-01-30T09:17:40.620Z,50.23
2018-01-30T09:18:47.124Z,49.71
2018-01-30T09:19:52.848Z,49.71
2018-01-30T09:20:58.596Z,49.56
2018-01-30T09:22:04.376Z,49.18
2018-01-30T09:23:10.124Z,49.05
2018-01-30T09:24:15.874Z,49.13
2018-01-30T09:25:21.629Z,48.82
2018-01-30T09:26:27.356Z,48.01
2018-01-30T09:27:33.147Z,47.85
2018-01-30T09:28:38.900Z,47.93
2018-01-30T09:29:44.640Z,47.53
2018-01-30T09:30:50.369Z,47.28
2018-01-30T09:31:56.096Z,46.88
2018-01-30T09:33:01.514Z,46.84
2018-01-30T09:34:08.071Z,46.37
2018-01-30T09:35:14.574Z,46.33
2018-01-30T09:36:20.322Z,46.09
2018-01-30T09:37:26.180Z,46.19
2018-01-30T09:38:31.612Z,46.13
2018-01-30T09:39:37.504Z,45.84
2018-01-30T09:40:44.028Z,45.39
2018-01-30T09:41:49.787Z,45.30
2018-01-30T09:42:56.328Z,45.10
2018-01-30T09:44:01.608Z,45.10
2018-01-30T09:45:07.377Z,45.15
2018-01-30T09:46:13.114Z,45.22
2018-01-30T09:47:18.859Z,45.36
2018-01-30T09:48:24.601Z,45.51
2018-01-30T09:49:30.332Z,45.41
2018-01-30T09:50:36.107Z,44.99
2018-01-30T09:51:41.832Z,45.03
2018-01-30T09:52:47.596Z,45.07
2018-01-30T09:53:53.332Z,44.42
2018-01-30T09:54:59.075Z,44.48
2018-01-30T09:56:04.842Z,44.65
2018-01-30T09:57:11.417Z,44.48
2018-01-30T09:58:17.391Z,44.35
2018-01-30T09:59:23.124Z,44.26
2018-01-30T10:00:29.153Z,44.11
2018-01-30T10:01:34.936Z,44.07
2018-01-30T10:02:40.931Z,43.66
2018-01-30T10:03:47.451Z,43.52
2018-01-30T10:04:53.203Z,43.81
2018-01-30T10:05:58.942Z,44.08
2018-01-30T10:07:04.704Z,44.14
2018-01-30T10:08:11.199Z,44.28
2018-01-30T10:09:16.286Z,44.42
2018-01-30T10:10:22.786Z,44.02
2018-01-30T10:11:28.534Z,44.13
2018-01-30T10:12:34.302Z,44.07
2018-01-30T10:13:40.063Z,44.22
2018-01-30T10:14:45.937Z,44.58
2018-01-30T10:15:51.693Z,44.56
2018-01-30T10:16:57.424Z,44.67
2018-01-30T10:18:03.186Z,44.69
2018-01-30T10:19:08.611Z,44.66
2018-01-30T10:20:14.050Z,44.90
2018-01-30T10:21:19.784Z,45.18
2018-01-30T10:22:25.532Z,45.29
2018-01-30T10:23:31.330Z,45.36
2018-01-30T10:24:37.619Z,45.54
2018-01-30T10:25:43.362Z,45.77
2018-01-30T10:26:49.099Z,45.76
2018-01-30T10:27:54.838Z,46.06
2018-01-30T10:29:00.620Z,46.15
2018-01-30T10:30:05.527Z,46.02
2018-01-30T10:31:11.255Z,46.17
2018-01-30T10:32:16.983Z,46.28
2018-01-30T10:33:22.744Z,46.47
2018-01-30T10:34:28.641Z,46.48
2018-01-30T10:35:33.712Z,46.49
2018-01-30T10:36:40.213Z,46.45
2018-01-30T10:37:45.956Z,46.64
2018-01-30T10:38:52.505Z,46.73
2018-01-30T10:39:59.062Z,46.87
2018-01-30T10:41:06.371Z,47.08
2018-01-30T10:42:12.124Z,47.27
2018-01-30T10:43:18.616Z,47.44
2018-01-30T10:44:24.376Z,47.23
2018-01-30T10:45:30.489Z,47.13
2018-01-30T10:46:36.232Z,46.98
2018-01-30T10:47:41.973Z,47.07
2018-01-30T10:48:47.743Z,47.09
2018-01-30T10:49:53.490Z,46.98
2018-01-30T10:50:59.056Z,46.87
2018-01-30T10:52:05.679Z,46.59
2018-01-30T10:53:11.403Z,46.98
2018-01-30T10:54:17.147Z,46.90
2018-01-30T10:55:22.892Z,47.08
2018-01-30T10:56:28.670Z,47.12
2018-01-30T10:57:33.515Z,47.17
2018-01-30T10:58:40.008Z,47.08
2018-01-30T10:59:45.869Z,47.14
2018-01-30T11:00:51.424Z,47.10
2018-01-30T11:01:57.190Z,46.80
2018-01-30T11:03:03.996Z,46.60
2018-01-30T11:04:09.097Z,46.67
2018-01-30T11:05:15.601Z,46.71
2018-01-30T11:06:21.343Z,46.69
2018-01-30T11:07:27.100Z,46.72
2018-01-30T11:08:32.845Z,46.78
2018-01-30T11:09:38.649Z,46.76
2018-01-30T11:10:45.321Z,46.70
2018-01-30T11:11:51.071Z,47.06
2018-01-30T11:12:55.979Z,47.07
2018-01-30T11:14:01.713Z,47.13
2018-01-30T11:15:07.595Z,47.28
2018-01-30T11:16:13.355Z,47.30
2018-01-30T11:17:18.769Z,47.43
2018-01-30T11:18:24.552Z,47.73
2018-01-30T11:19:30.295Z,47.91
2018-01-30T11:20:36.029Z,47.94
2018-01-30T11:21:42.524Z,48.15
2018-01-30T11:22:48.265Z,48.44
2018-01-30T11:23:54.047Z,48.74
2018-01-30T11:24:59.774Z,48.84
2018-01-30T11:26:05.519Z,49.00
2018-01-30T11:27:11.262Z,49.08
2018-01-30T11:28:16.995Z,49.07
2018-01-30T11:29:23.528Z,48.97
2018-01-30T11:30:29.314Z,48.66
2018-01-30T11:31:34.399Z,48.78
2018-01-30T11:32:40.128Z,48.80
2018-01-30T11:33:45.974Z,48.79
2018-01-30T11:34:51.745Z,48.78
2018-01-30T11:35:57.499Z,48.60
2018-01-30T11:37:03.277Z,48.19
2018-01-30T11:38:09.016Z,48.23
2018-01-30T11:39:14.752Z,48.18
2018-01-30T11:40:21.269Z,48.31
2018-01-30T11:41:27.013Z,48.52
2018-01-30T11:42:32.792Z,48.65
2018-01-30T11:43:38.621Z,48.63
2018-01-30T11:44:45.135Z,48.35
2018-01-30T11:45:50.890Z,48.45
2018-01-30T11:46:56.646Z,48.61
2018-01-30T11:48:03.900Z,48.73
2018-01-30T11:49:09.663Z,48.87
2018-01-30T11:50:15.402Z,49.15
2018-01-30T11:51:21.194Z,49.33
2018-01-30T11:52:26.953Z,49.49
2018-01-30T11:53:32.741Z,49.55
2018-01-30T11:54:38.463Z,49.50
2018-01-30T11:55:44.200Z,49.45
2018-01-30T11:56:50.171Z,49.45
2018-01-30T11:57:55.946Z,49.45
2018-01-30T11:59:01.698Z,49.29
2018-01-30T12:00:07.229Z,49.26
2018-01-30T12:01:12.959Z,49.43
2018-01-30T12:02:18.990Z,49.51
2018-01-30T12:03:25.522Z,49.72
2018-01-30T12:04:31.279Z,49.75
2018-01-30T12:05:37.022Z,49.70
2018-01-30T12:06:42.769Z,49.62
2018-01-30T12:07:48.563Z,49.34
2018-01-30T12:08:54.492Z,48.99
2018-01-30T12:10:00.219Z,48.66
2018-01-30T12:11:05.966Z,48.67
2018-01-30T12:12:11.697Z,48.63
2018-01-30T12:13:18.239Z,48.47
2018-01-30T12:14:23.962Z,48.45
2018-01-30T12:15:29.694Z,48.10
2018-01-30T12:16:35.489Z,47.94
2018-01-30T12:17:41.243Z,47.76
2018-01-30T12:18:46.669Z,47.47
2018-01-30T12:19:52.505Z,47.64
2018-01-30T12:20:58.226Z,47.68
2018-01-30T12:22:04.738Z,47.71
2018-01-30T12:23:10.471Z,47.56
2018-01-30T12:24:16.222Z,47.32
2018-01-30T12:25:21.955Z,47.32
2018-01-30T12:26:27.709Z,47.17
2018-01-30T12:27:33.725Z,47.04
2018-01-30T12:28:40.238Z,46.60
2018-01-30T12:29:45.996Z,46.54
2018-01-30T12:30:52.505Z,46.54
2018-01-30T12:31:58.251Z,46.71
2018-01-30T12:33:03.989Z,46.62
2018-01-30T12:34:09.754Z,46.66
2018-01-30T12:35:15.556Z,46.86
2018-01-30T12:36:21.311Z,46.82
2018-01-30T12:37:27.063Z,46.81
2018-01-30T12:38:32.818Z,46.98
2018-01-30T12:39:38.574Z,46.97
2018-01-30T12:40:44.351Z,46.46
2018-01-30T12:41:51.014Z,46.16
2018-01-30T12:42:56.763Z,46.03
2018-01-30T12:44:02.488Z,46.06
2018-01-30T12:45:09.052Z,46.01
2018-01-30T12:46:14.821Z,46.25
2018-01-30T12:47:21.037Z,46.24
2018-01-30T12:48:27.551Z,46.26
2018-01-30T12:49:33.360Z,46.32
2018-01-30T12:50:40.038Z,46.22
2018-01-30T12:51:45.811Z,46.11
2018-01-30T12:52:51.595Z,46.07
2018-01-30T12:53:56.441Z,45.77
2018-01-30T12:55:02.207Z,45.44
2018-01-30T12:56:08.053Z,45.55
2018-01-30T12:57:13.931Z,45.47
2018-01-30T12:58:20.508Z,45.35
2018-01-30T12:59:26.379Z,45.37
2018-01-30T13:00:32.130Z,45.53
2018-01-30T13:01:37.941Z,45.64
2018-01-30T13:02:43.845Z,45.03
2018-01-30T13:03:49.592Z,44.45
2018-01-30T13:04:55.323Z,43.74
2018-01-30T13:06:01.049Z,43.51
2018-01-30T13:07:06.801Z,43.78
2018-01-30T13:08:12.618Z,43.67
2018-01-30T13:09:18.345Z,43.74
2018-01-30T13:10:24.149Z,43.71
2018-01-30T13:11:29.878Z,43.87
2018-01-30T13:12:35.624Z,43.66
2018-01-30T13:13:42.186Z,43.41
2018-01-30T13:14:47.924Z,43.45
2018-01-30T13:15:52.785Z,43.43
2018-01-30T13:16:58.534Z,43.51
2018-01-30T13:18:04.270Z,43.80
2018-01-30T13:19:10.161Z,43.64
2018-01-30T13:20:15.898Z,43.60
2018-01-30T13:21:21.638Z,43.67
2018-01-30T13:22:27.427Z,43.69
2018-01-30T13:23:33.191Z,43.99
2018-01-30T13:24:38.964Z,44.31
2018-01-30T13:25:44.707Z,44.45
2018-01-30T13:26:50.469Z,44.99
2018-01-30T13:27:56.777Z,45.42
2018-01-30T13:29:02.589Z,45.57
2018-01-30T13:30:08.595Z,45.80
2018-01-30T13:31:14.325Z,45.82
2018-01-30T13:32:20.060Z,45.71
2018-01-30T13:33:25.142Z,45.36
2018-01-30T13:34:30.877Z,45.33
2018-01-30T13:35:37.415Z,45.17
2018-01-30T13:36:43.168Z,45.42
2018-01-30T13:37:49.683Z,45.38
2018-01-30T13:38:55.413Z,45.31
2018-01-30T13:40:00.939Z,45.29
2018-01-30T13:41:06.780Z,45.24
2018-01-30T13:42:13.480Z,45.01
2018-01-30T13:43:19.244Z,44.91
2018-01-30T13:44:24.998Z,44.72
2018-01-30T13:45:31.519Z,44.94
2018-01-30T13:46:36.950Z,45.25
2018-01-30T13:47:42.726Z,45.63
2018-01-30T13:48:49.241Z,45.66
2018-01-30T13:49:54.959Z,45.73
2018-01-30T13:51:00.788Z,45.78
2018-01-30T13:52:06.557Z,45.97
2018-01-30T13:53:12.288Z,45.96
2018-01-30T13:54:18.262Z,46.15
2018-01-30T13:55:24.008Z,46.07
2018-01-30T13:56:29.748Z,46.05
2018-01-30T13:57:35.519Z,46.30
2018-01-30T13:58:41.249Z,46.43
2018-01-30T13:59:46.999Z,46.47
2018-01-30T14:00:52.797Z,46.78
2018-01-30T14:01:58.557Z,46.92
2018-01-30T14:03:04.532Z,47.11
2018-01-30T14:04:11.110Z,47.26
2018-01-30T14:05:17.750Z,47.41
2018-01-30T14:06:23.480Z,47.35
2018-01-30T14:07:29.236Z,47.46
2018-01-30T14:08:35.158Z,47.58
2018-01-30T14:09:41.537Z,47.86